sensor_id;sensor_type;location;lat;lon;timestamp;pressure;altitude;pressure_sealevel;temperature;humidity
6134;BME280;3098;42.678;23.364;2024-02-04T00:00:54;95066.13;;;5.44;100.00
6134;BME280;3098;42.678;23.364;2024-02-04T00:03:27;95147.97;;;5.97;100.00
6134;BME280;3098;42.678;23.364;2024-02-04T00:05:58;95169.19;;;6.15;100.00
6134;BME280;3098;42.678;23.364;2024-02-04T00:08:27;95361.97;;;7.20;100.00
6134;BME280;3098;42.678;23.364;2024-02-04T00:13:46;95178.53;;;6.36;100.00
6134;BME280;3098;42.678;23.364;2024-02-04T00:16:18;94836.28;;;4.14;100.00
6134;BME280;3098;42.678;23.364;2024-02-04T00:18:46;95330.81;;;7.22;100.00
6134;BME280;3098;42.678;23.364;2024-02-04T00:21:14;95044.75;;;5.51;100.00
6134;BME280;3098;42.678;23.364;2024-02-04T00:23:45;95017.63;;;5.16;100.00
6134;BME280;3098;42.678;23.364;2024-02-04T00:26:14;94910.19;;;4.41;100.00
6134;BME280;3098;42.678;23.364;2024-02-04T00:28:45;94841.34;;;3.90;100.00
6134;BME280;3098;42.678;23.364;2024-02-04T00:31:14;95212.22;;;6.40;100.00
6134;BME280;3098;42.678;23.364;2024-02-04T00:33:42;95154.34;;;6.29;100.00
6134;BME280;3098;42.678;23.364;2024-02-04T00:36:10;95168.50;;;6.38;100.00
6134;BME280;3098;42.678;23.364;2024-02-04T00:38:39;95093.75;;;5.91;100.00
6134;BME280;3098;42.678;23.364;2024-02-04T00:41:37;95045.94;;;5.73;100.00
6134;BME280;3098;42.678;23.364;2024-02-04T00:44:09;95166.75;;;6.63;100.00
6134;BME280;3098;42.678;23.364;2024-02-04T00:46:38;95308.94;;;7.50;100.00
6134;BME280;3098;42.678;23.364;2024-02-04T00:49:05;95157.44;;;6.36;100.00
6134;BME280;3098;42.678;23.364;2024-02-04T00:51:35;95154.81;;;6.36;100.00
6134;BME280;3098;42.678;23.364;2024-02-04T00:54:04;95307.91;;;7.46;100.00
6134;BME280;3098;42.678;23.364;2024-02-04T00:56:33;95308.44;;;7.48;100.00
6134;BME280;3098;42.678;23.364;2024-02-04T00:59:00;95310.28;;;7.48;100.00
6134;BME280;3098;42.678;23.364;2024-02-04T01:01:33;94893.22;;;4.77;100.00
6134;BME280;3098;42.678;23.364;2024-02-04T01:04:06;94965.53;;;5.18;100.00
6134;BME280;3098;42.678;23.364;2024-02-04T01:06:36;94985.72;;;5.33;100.00
6134;BME280;3098;42.678;23.364;2024-02-04T01:09:03;94889.84;;;4.72;100.00
6134;BME280;3098;42.678;23.364;2024-02-04T01:11:34;95330.16;;;7.40;100.00
6134;BME280;3098;42.678;23.364;2024-02-04T01:14:02;95338.56;;;7.42;100.00
6134;BME280;3098;42.678;23.364;2024-02-04T01:19:09;95338.88;;;7.36;100.00
6134;BME280;3098;42.678;23.364;2024-02-04T01:21:40;95087.41;;;5.53;100.00
6134;BME280;3098;42.678;23.364;2024-02-04T01:24:21;95167.78;;;6.28;100.00
6134;BME280;3098;42.678;23.364;2024-02-04T01:26:50;94961.66;;;5.06;100.00
6134;BME280;3098;42.678;23.364;2024-02-04T01:29:32;94856.59;;;4.47;100.00
6134;BME280;3098;42.678;23.364;2024-02-04T01:32:08;94875.28;;;4.40;100.00
6134;BME280;3098;42.678;23.364;2024-02-04T01:40:24;94955.19;;;4.83;100.00
6134;BME280;3098;42.678;23.364;2024-02-04T01:43:03;95147.88;;;6.12;100.00
6134;BME280;3098;42.678;23.364;2024-02-04T01:45:46;95150.22;;;6.18;100.00
6134;BME280;3098;42.678;23.364;2024-02-04T01:48:15;94870.59;;;4.32;100.00
6134;BME280;3098;42.678;23.364;2024-02-04T01:50:42;95006.78;;;5.23;100.00
6134;BME280;3098;42.678;23.364;2024-02-04T01:53:11;95173.53;;;6.35;100.00
6134;BME280;3098;42.678;23.364;2024-02-04T01:55:46;94976.97;;;4.94;100.00
6134;BME280;3098;42.678;23.364;2024-02-04T01:58:14;94823.56;;;4.36;100.00
6134;BME280;3098;42.678;23.364;2024-02-04T02:00:43;94857.75;;;4.75;100.00
6134;BME280;3098;42.678;23.364;2024-02-04T02:03:12;95026.91;;;5.92;100.00
6134;BME280;3098;42.678;23.364;2024-02-04T02:05:49;95187.06;;;6.91;100.00
6134;BME280;3098;42.678;23.364;2024-02-04T02:08:17;95277.56;;;7.73;100.00
6134;BME280;3098;42.678;23.364;2024-02-04T02:11:05;95279.31;;;7.82;100.00
6134;BME280;3098;42.678;23.364;2024-02-04T02:13:40;95105.88;;;6.59;100.00
6134;BME280;3098;42.678;23.364;2024-02-04T02:16:15;95289.56;;;7.89;100.00
6134;BME280;3098;42.678;23.364;2024-02-04T02:18:52;95263.16;;;7.89;100.00
6134;BME280;3098;42.678;23.364;2024-02-04T02:21:30;94832.84;;;5.06;100.00
6134;BME280;3098;42.678;23.364;2024-02-04T02:24:11;95006.28;;;6.32;100.00
6134;BME280;3098;42.678;23.364;2024-02-04T02:26:40;95148.78;;;7.22;100.00
6134;BME280;3098;42.678;23.364;2024-02-04T02:29:13;94858.13;;;5.36;100.00
6134;BME280;3098;42.678;23.364;2024-02-04T02:37:08;94861.38;;;5.22;100.00
6134;BME280;3098;42.678;23.364;2024-02-04T02:39:48;94843.03;;;5.17;100.00
6134;BME280;3098;42.678;23.364;2024-02-04T02:42:23;95133.69;;;7.28;100.00
6134;BME280;3098;42.678;23.364;2024-02-04T02:44:53;95288.97;;;8.16;100.00
6134;BME280;3098;42.678;23.364;2024-02-04T02:50:00;94750.59;;;4.72;100.00
6134;BME280;3098;42.678;23.364;2024-02-04T02:52:32;95109.53;;;7.16;100.00
6134;BME280;3098;42.678;23.364;2024-02-04T02:54:59;95219.75;;;7.95;100.00
6134;BME280;3098;42.678;23.364;2024-02-04T02:57:29;95082.00;;;7.03;100.00
6134;BME280;3098;42.678;23.364;2024-02-04T02:59:57;95260.41;;;8.18;100.00
6134;BME280;3098;42.678;23.364;2024-02-04T03:02:36;95037.47;;;6.73;100.00
6134;BME280;3098;42.678;23.364;2024-02-04T03:05:04;95258.06;;;8.16;100.00
6134;BME280;3098;42.678;23.364;2024-02-04T03:07:44;95257.75;;;8.18;100.00
6134;BME280;3098;42.678;23.364;2024-02-04T03:10:12;95142.72;;;7.45;100.00
6134;BME280;3098;42.678;23.364;2024-02-04T03:15:13;94853.72;;;5.60;100.00
6134;BME280;3098;42.678;23.364;2024-02-04T03:17:43;95000.91;;;6.43;100.00
6134;BME280;3098;42.678;23.364;2024-02-04T03:20:10;95092.19;;;7.10;100.00
6134;BME280;3098;42.678;23.364;2024-02-04T03:22:40;95274.69;;;8.17;100.00
6134;BME280;3098;42.678;23.364;2024-02-04T03:25:19;95021.13;;;6.52;100.00
6134;BME280;3098;42.678;23.364;2024-02-04T03:27:48;94826.47;;;5.46;100.00
6134;BME280;3098;42.678;23.364;2024-02-04T03:30:24;95089.78;;;7.13;100.00
6134;BME280;3098;42.678;23.364;2024-02-04T03:33:03;95256.28;;;8.12;100.00
6134;BME280;3098;42.678;23.364;2024-02-04T03:35:39;94873.28;;;5.49;100.00
6134;BME280;3098;42.678;23.364;2024-02-04T03:41:00;95239.19;;;8.04;100.00
6134;BME280;3098;42.678;23.364;2024-02-04T03:46:01;95245.97;;;8.10;100.00
6134;BME280;3098;42.678;23.364;2024-02-04T03:48:32;94744.19;;;4.88;100.00
6134;BME280;3098;42.678;23.364;2024-02-04T03:51:04;94937.94;;;6.17;100.00
6134;BME280;3098;42.678;23.364;2024-02-04T03:53:32;95093.38;;;7.22;100.00
6134;BME280;3098;42.678;23.364;2024-02-04T03:56:00;94788.00;;;5.26;100.00
6134;BME280;3098;42.678;23.364;2024-02-04T03:58:29;94998.31;;;6.66;100.00
6134;BME280;3098;42.678;23.364;2024-02-04T04:01:05;95255.41;;;8.16;100.00
6134;BME280;3098;42.678;23.364;2024-02-04T04:03:46;95062.19;;;7.06;100.00
6134;BME280;3098;42.678;23.364;2024-02-04T04:06:32;95237.03;;;8.06;100.00
6134;BME280;3098;42.678;23.364;2024-02-04T04:08:59;95103.28;;;7.12;100.00
6134;BME280;3098;42.678;23.364;2024-02-04T04:11:31;94873.59;;;5.71;100.00
6134;BME280;3098;42.678;23.364;2024-02-04T04:14:15;94808.78;;;5.28;100.00
6134;BME280;3098;42.678;23.364;2024-02-04T04:16:44;95118.31;;;7.35;100.00
6134;BME280;3098;42.678;23.364;2024-02-04T04:19:12;94818.75;;;5.26;100.00
6134;BME280;3098;42.678;23.364;2024-02-04T04:21:43;95063.81;;;7.02;100.00
6134;BME280;3098;42.678;23.364;2024-02-04T04:24:10;95073.13;;;7.18;100.00
6134;BME280;3098;42.678;23.364;2024-02-04T04:26:41;94728.06;;;4.94;100.00
6134;BME280;3098;42.678;23.364;2024-02-04T04:29:09;95240.44;;;8.12;100.00
6134;BME280;3098;42.678;23.364;2024-02-04T04:31:37;94781.56;;;5.13;100.00
6134;BME280;3098;42.678;23.364;2024-02-04T04:34:08;95226.69;;;8.09;100.00
6134;BME280;3098;42.678;23.364;2024-02-04T04:36:39;95093.38;;;7.22;100.00
6134;BME280;3098;42.678;23.364;2024-02-04T04:39:31;94862.69;;;5.88;100.00
6134;BME280;3098;42.678;23.364;2024-02-04T04:42:02;94981.22;;;6.59;100.00
6134;BME280;3098;42.678;23.364;2024-02-04T04:44:31;95242.81;;;8.32;100.00
6134;BME280;3098;42.678;23.364;2024-02-04T04:47:05;95031.97;;;6.98;100.00
6134;BME280;3098;42.678;23.364;2024-02-04T04:49:55;94961.78;;;6.55;100.00
6134;BME280;3098;42.678;23.364;2024-02-04T04:52:25;95089.66;;;7.47;100.00
6134;BME280;3098;42.678;23.364;2024-02-04T04:55:18;95005.09;;;6.72;100.00
6134;BME280;3098;42.678;23.364;2024-02-04T04:57:46;95021.28;;;7.08;100.00
6134;BME280;3098;42.678;23.364;2024-02-04T05:00:17;95066.59;;;7.34;100.00
6134;BME280;3098;42.678;23.364;2024-02-04T05:02:50;94871.16;;;6.08;100.00
6134;BME280;3098;42.678;23.364;2024-02-04T05:05:20;94688.75;;;4.84;100.00
6134;BME280;3098;42.678;23.364;2024-02-04T05:07:50;94788.84;;;5.50;100.00
6134;BME280;3098;42.678;23.364;2024-02-04T05:10:20;94951.75;;;6.57;100.00
6134;BME280;3098;42.678;23.364;2024-02-04T05:13:01;95223.56;;;8.26;100.00
6134;BME280;3098;42.678;23.364;2024-02-04T05:15:29;95108.13;;;7.47;100.00
6134;BME280;3098;42.678;23.364;2024-02-04T05:18:00;94961.72;;;6.60;100.00
6134;BME280;3098;42.678;23.364;2024-02-04T05:20:30;95238.63;;;8.31;100.00
6134;BME280;3098;42.678;23.364;2024-02-04T05:22:57;94959.59;;;6.62;100.00
6134;BME280;3098;42.678;23.364;2024-02-04T05:25:25;94832.91;;;5.63;100.00
6134;BME280;3098;42.678;23.364;2024-02-04T05:27:54;94997.34;;;6.57;100.00
6134;BME280;3098;42.678;23.364;2024-02-04T05:30:24;94876.63;;;5.88;100.00
6134;BME280;3098;42.678;23.364;2024-02-04T05:32:55;94860.75;;;5.98;100.00
6134;BME280;3098;42.678;23.364;2024-02-04T05:35:24;94905.50;;;5.98;100.00
6134;BME280;3098;42.678;23.364;2024-02-04T05:38:08;94802.38;;;5.34;100.00
6134;BME280;3098;42.678;23.364;2024-02-04T05:40:56;95271.69;;;8.47;100.00
6134;BME280;3098;42.678;23.364;2024-02-04T05:43:23;95038.72;;;7.28;100.00
6134;BME280;3098;42.678;23.364;2024-02-04T05:45:52;95244.91;;;8.11;100.00
6134;BME280;3098;42.678;23.364;2024-02-04T05:48:33;94811.53;;;5.70;100.00
6134;BME280;3098;42.678;23.364;2024-02-04T05:51:03;95048.84;;;6.97;100.00
6134;BME280;3098;42.678;23.364;2024-02-04T05:53:36;95190.22;;;8.12;100.00
6134;BME280;3098;42.678;23.364;2024-02-04T05:56:05;94975.75;;;6.79;100.00
6134;BME280;3098;42.678;23.364;2024-02-04T05:58:33;95248.78;;;8.42;100.00
6134;BME280;3098;42.678;23.364;2024-02-04T06:01:03;95093.00;;;7.34;100.00
6134;BME280;3098;42.678;23.364;2024-02-04T06:03:37;94769.84;;;5.30;100.00
6134;BME280;3098;42.678;23.364;2024-02-04T06:06:08;94879.00;;;5.90;100.00
6134;BME280;3098;42.678;23.364;2024-02-04T06:09:07;94974.19;;;6.54;100.00
6134;BME280;3098;42.678;23.364;2024-02-04T06:11:37;95266.19;;;8.43;100.00
6134;BME280;3098;42.678;23.364;2024-02-04T06:14:13;95169.78;;;7.80;100.00
6134;BME280;3098;42.678;23.364;2024-02-04T06:16:45;95100.34;;;7.13;100.00
6134;BME280;3098;42.678;23.364;2024-02-04T06:19:27;95126.03;;;7.50;100.00
6134;BME280;3098;42.678;23.364;2024-02-04T06:21:57;94890.25;;;5.95;100.00
6134;BME280;3098;42.678;23.364;2024-02-04T06:24:35;95161.75;;;7.66;100.00
6134;BME280;3098;42.678;23.364;2024-02-04T06:27:17;94789.34;;;5.23;100.00
6134;BME280;3098;42.678;23.364;2024-02-04T06:32:18;94974.88;;;6.12;100.00
6134;BME280;3098;42.678;23.364;2024-02-04T06:34:50;95332.41;;;8.52;100.00
6134;BME280;3098;42.678;23.364;2024-02-04T06:37:25;95304.00;;;8.62;100.00
6134;BME280;3098;42.678;23.364;2024-02-04T07:07:37;95299.41;;;9.24;100.00
6134;BME280;3098;42.678;23.364;2024-02-04T07:10:22;94922.94;;;6.84;100.00
6134;BME280;3098;42.678;23.364;2024-02-04T07:13:03;94844.78;;;6.56;100.00
6134;BME280;3098;42.678;23.364;2024-02-04T07:15:38;94910.78;;;7.25;100.00
6134;BME280;3098;42.678;23.364;2024-02-04T07:18:19;95334.53;;;10.35;100.00
6134;BME280;3098;42.678;23.364;2024-02-04T07:20:56;95046.97;;;8.33;100.00
6134;BME280;3098;42.678;23.364;2024-02-04T07:26:04;94812.00;;;6.99;100.00
6134;BME280;3098;42.678;23.364;2024-02-04T07:28:37;95293.03;;;9.71;100.00
6134;BME280;3098;42.678;23.364;2024-02-04T07:31:14;94853.00;;;6.91;100.00
6134;BME280;3098;42.678;23.364;2024-02-04T07:33:53;95042.03;;;8.27;100.00
6134;BME280;3098;42.678;23.364;2024-02-04T07:36:28;95169.72;;;8.92;100.00
6134;BME280;3098;42.678;23.364;2024-02-04T07:39:01;95209.91;;;9.40;100.00
6134;BME280;3098;42.678;23.364;2024-02-04T07:41:32;95058.91;;;8.31;100.00
6134;BME280;3098;42.678;23.364;2024-02-04T07:43:59;95167.59;;;8.94;100.00
6134;BME280;3098;42.678;23.364;2024-02-04T07:46:31;95271.44;;;9.64;100.00
6134;BME280;3098;42.678;23.364;2024-02-04T07:49:07;95153.22;;;8.68;100.00
6134;BME280;3098;42.678;23.364;2024-02-04T07:51:37;95139.00;;;8.63;100.00
6134;BME280;3098;42.678;23.364;2024-02-04T07:54:08;95164.44;;;8.92;100.00
6134;BME280;3098;42.678;23.364;2024-02-04T07:56:39;95096.19;;;8.29;100.00
6134;BME280;3098;42.678;23.364;2024-02-04T07:59:08;95094.59;;;9.06;100.00
6134;BME280;3098;42.678;23.364;2024-02-04T08:01:37;95214.47;;;10.92;100.00
6134;BME280;3098;42.678;23.364;2024-02-04T08:04:09;95191.22;;;11.20;100.00
6134;BME280;3098;42.678;23.364;2024-02-04T08:06:39;94944.09;;;9.99;100.00
6134;BME280;3098;42.678;23.364;2024-02-04T08:09:09;95310.94;;;11.54;100.00
6134;BME280;3098;42.678;23.364;2024-02-04T08:44:47;95038.88;;;10.02;100.00
6134;BME280;3098;42.678;23.364;2024-02-04T08:47:19;95086.59;;;11.30;100.00
6134;BME280;3098;42.678;23.364;2024-02-04T08:52:36;94952.22;;;12.87;100.00
6134;BME280;3098;42.678;23.364;2024-02-04T08:55:23;95310.06;;;14.56;100.00
6134;BME280;3098;42.678;23.364;2024-02-04T08:58:06;95188.22;;;12.57;100.00
6134;BME280;3098;42.678;23.364;2024-02-04T09:00:46;94932.50;;;10.78;100.00
6134;BME280;3098;42.678;23.364;2024-02-04T09:03:33;95105.38;;;11.03;100.00
6134;BME280;3098;42.678;23.364;2024-02-04T09:06:21;95293.84;;;11.69;100.00
6134;BME280;3098;42.678;23.364;2024-02-04T09:08:58;95200.25;;;11.19;100.00
6134;BME280;3098;42.678;23.364;2024-02-04T09:11:34;95152.06;;;10.81;100.00
6134;BME280;3098;42.678;23.364;2024-02-04T09:14:09;95193.69;;;10.94;100.00
6134;BME280;3098;42.678;23.364;2024-02-04T09:16:56;95163.59;;;10.77;100.00
6134;BME280;3098;42.678;23.364;2024-02-04T09:19:38;94901.09;;;8.86;100.00
6134;BME280;3098;42.678;23.364;2024-02-04T09:22:16;95307.38;;;11.37;100.00
6134;BME280;3098;42.678;23.364;2024-02-04T09:24:53;94887.06;;;8.36;100.00
6134;BME280;3098;42.678;23.364;2024-02-04T09:27:27;95191.59;;;9.98;100.00
6134;BME280;3098;42.678;23.364;2024-02-04T09:30:08;95192.41;;;9.85;100.00
6134;BME280;3098;42.678;23.364;2024-02-04T09:35:38;95355.72;;;10.62;100.00
6134;BME280;3098;42.678;23.364;2024-02-04T09:38:12;95068.25;;;9.29;100.00
6134;BME280;3098;42.678;23.364;2024-02-04T09:40:53;95153.34;;;10.62;100.00
6134;BME280;3098;42.678;23.364;2024-02-04T09:43:38;95119.25;;;10.69;100.00
6134;BME280;3098;42.678;23.364;2024-02-04T09:46:10;95106.09;;;11.65;100.00
6134;BME280;3098;42.678;23.364;2024-02-04T09:48:46;94831.16;;;9.80;100.00
6134;BME280;3098;42.678;23.364;2024-02-04T10:08:11;95130.78;;;12.56;100.00
6134;BME280;3098;42.678;23.364;2024-02-04T10:11:01;95302.69;;;13.43;100.00
6134;BME280;3098;42.678;23.364;2024-02-04T10:13:56;95117.22;;;13.04;100.00
6134;BME280;3098;42.678;23.364;2024-02-04T10:16:51;95304.00;;;14.00;100.00
6134;BME280;3098;42.678;23.364;2024-02-04T10:19:34;95337.88;;;12.62;100.00
6134;BME280;3098;42.678;23.364;2024-02-04T10:32:55;95135.22;;;11.78;100.00
6134;BME280;3098;42.678;23.364;2024-02-04T10:35:39;95061.97;;;11.38;100.00
6134;BME280;3098;42.678;23.364;2024-02-04T10:38:18;95217.72;;;12.13;100.00
6134;BME280;3098;42.678;23.364;2024-02-04T10:43:30;94972.28;;;9.72;100.00
6134;BME280;3098;42.678;23.364;2024-02-04T10:46:17;94893.00;;;9.18;100.00
6134;BME280;3098;42.678;23.364;2024-02-04T10:48:59;95034.06;;;10.04;100.00
6134;BME280;3098;42.678;23.364;2024-02-04T10:51:27;95055.50;;;10.29;100.00
6134;BME280;3098;42.678;23.364;2024-02-04T10:54:03;95341.09;;;11.59;100.00
6134;BME280;3098;42.678;23.364;2024-02-04T10:56:43;94857.38;;;8.52;100.00
6134;BME280;3098;42.678;23.364;2024-02-04T10:59:28;94800.53;;;8.41;100.00
6134;BME280;3098;42.678;23.364;2024-02-04T11:02:06;95279.88;;;11.86;100.00
6134;BME280;3098;42.678;23.364;2024-02-04T11:20:47;95036.63;;;11.32;100.00
6134;BME280;3098;42.678;23.364;2024-02-04T11:23:37;95056.72;;;11.72;100.00
6134;BME280;3098;42.678;23.364;2024-02-04T11:26:16;95111.19;;;12.43;100.00
6134;BME280;3098;42.678;23.364;2024-02-04T11:28:55;94919.50;;;11.59;100.00
6134;BME280;3098;42.678;23.364;2024-02-04T11:31:42;95239.28;;;13.28;100.00
6134;BME280;3098;42.678;23.364;2024-02-04T11:34:17;95168.47;;;12.92;100.00
6134;BME280;3098;42.678;23.364;2024-02-04T11:42:35;95026.03;;;11.32;100.00
6134;BME280;3098;42.678;23.364;2024-02-04T11:45:19;95141.31;;;11.79;100.00
6134;BME280;3098;42.678;23.364;2024-02-04T11:48:01;95036.66;;;11.40;100.00
6134;BME280;3098;42.678;23.364;2024-02-04T11:50:38;95239.56;;;12.83;100.00
6134;BME280;3098;42.678;23.364;2024-02-04T11:53:16;95206.84;;;12.65;100.00
6134;BME280;3098;42.678;23.364;2024-02-04T11:55:54;95068.19;;;12.41;100.00
6134;BME280;3098;42.678;23.364;2024-02-04T12:08:48;95215.25;;;13.45;100.00
6134;BME280;3098;42.678;23.364;2024-02-04T12:11:21;95063.16;;;12.65;100.00
6134;BME280;3098;42.678;23.364;2024-02-04T12:13:56;95223.41;;;13.40;100.00
6134;BME280;3098;42.678;23.364;2024-02-04T12:16:28;94978.91;;;11.97;100.00
6134;BME280;3098;42.678;23.364;2024-02-04T12:19:03;95212.47;;;12.98;100.00
6134;BME280;3098;42.678;23.364;2024-02-04T12:21:33;95168.66;;;12.70;100.00
6134;BME280;3098;42.678;23.364;2024-02-04T12:24:05;95201.19;;;13.18;100.00
6134;BME280;3098;42.678;23.364;2024-02-04T12:26:44;95199.31;;;13.19;100.00
6134;BME280;3098;42.678;23.364;2024-02-04T12:29:25;95231.56;;;13.26;100.00
6134;BME280;3098;42.678;23.364;2024-02-04T12:34:30;94973.41;;;12.20;100.00
6134;BME280;3098;42.678;23.364;2024-02-04T12:36:59;95061.75;;;12.68;100.00
6134;BME280;3098;42.678;23.364;2024-02-04T12:39:29;95220.13;;;14.18;100.00
6134;BME280;3098;42.678;23.364;2024-02-04T12:42:02;94847.63;;;11.47;100.00
6134;BME280;3098;42.678;23.364;2024-02-04T12:44:37;95198.59;;;13.94;100.00
6134;BME280;3098;42.678;23.364;2024-02-04T12:47:10;95209.66;;;13.75;100.00
6134;BME280;3098;42.678;23.364;2024-02-04T12:50:07;94763.63;;;11.08;100.00
6134;BME280;3098;42.678;23.364;2024-02-04T12:53:04;94883.72;;;11.74;100.00
6134;BME280;3098;42.678;23.364;2024-02-04T12:59:03;94967.63;;;11.40;100.00
6134;BME280;3098;42.678;23.364;2024-02-04T13:01:35;95099.03;;;12.25;100.00
6134;BME280;3098;42.678;23.364;2024-02-04T13:04:05;94839.88;;;10.43;100.00
6134;BME280;3098;42.678;23.364;2024-02-04T13:06:38;94813.38;;;10.12;100.00
6134;BME280;3098;42.678;23.364;2024-02-04T13:09:09;95221.88;;;12.87;100.00
6134;BME280;3098;42.678;23.364;2024-02-04T13:11:44;95218.75;;;12.85;100.00
6134;BME280;3098;42.678;23.364;2024-02-04T13:14:23;94933.66;;;11.03;100.00
6134;BME280;3098;42.678;23.364;2024-02-04T13:16:51;94870.13;;;10.50;100.00
6134;BME280;3098;42.678;23.364;2024-02-04T13:19:32;94831.38;;;10.23;100.00
6134;BME280;3098;42.678;23.364;2024-02-04T13:22:07;95124.47;;;12.00;100.00
6134;BME280;3098;42.678;23.364;2024-02-04T13:24:45;95248.13;;;12.29;100.00
6134;BME280;3098;42.678;23.364;2024-02-04T13:27:26;95223.78;;;12.04;100.00
6134;BME280;3098;42.678;23.364;2024-02-04T13:29:58;95225.34;;;11.97;100.00
6134;BME280;3098;42.678;23.364;2024-02-04T13:32:31;95236.34;;;11.73;100.00
6134;BME280;3098;42.678;23.364;2024-02-04T13:35:11;94827.72;;;9.27;100.00
6134;BME280;3098;42.678;23.364;2024-02-04T13:37:53;94859.72;;;9.61;100.00
6134;BME280;3098;42.678;23.364;2024-02-04T13:40:37;94965.13;;;10.48;100.00
6134;BME280;3098;42.678;23.364;2024-02-04T13:43:13;95051.72;;;10.75;100.00
6134;BME280;3098;42.678;23.364;2024-02-04T13:48:21;94830.47;;;9.66;100.00
6134;BME280;3098;42.678;23.364;2024-02-04T13:50:53;94799.13;;;9.38;100.00
6134;BME280;3098;42.678;23.364;2024-02-04T13:53:38;94774.59;;;9.01;100.00
6134;BME280;3098;42.678;23.364;2024-02-04T13:56:20;95234.91;;;12.15;100.00
6134;BME280;3098;42.678;23.364;2024-02-04T13:59:05;95148.06;;;11.45;100.00
6134;BME280;3098;42.678;23.364;2024-02-04T14:01:34;95128.00;;;11.00;100.00
6134;BME280;3098;42.678;23.364;2024-02-04T14:06:44;95007.44;;;10.09;100.00
6134;BME280;3098;42.678;23.364;2024-02-04T14:09:20;94765.25;;;8.59;100.00
6134;BME280;3098;42.678;23.364;2024-02-04T14:12:08;95075.72;;;10.70;100.00
6134;BME280;3098;42.678;23.364;2024-02-04T14:14:49;94834.63;;;9.14;100.00
6134;BME280;3098;42.678;23.364;2024-02-04T14:17:41;95041.47;;;10.60;100.00
6134;BME280;3098;42.678;23.364;2024-02-04T14:20:14;95061.31;;;10.62;100.00
6134;BME280;3098;42.678;23.364;2024-02-04T14:23:08;95237.34;;;11.64;100.00
6134;BME280;3098;42.678;23.364;2024-02-04T14:25:37;95240.28;;;11.53;100.00
6134;BME280;3098;42.678;23.364;2024-02-04T14:28:07;95043.38;;;10.37;100.00
6134;BME280;3098;42.678;23.364;2024-02-04T14:30:36;95083.97;;;10.68;100.00
6134;BME280;3098;42.678;23.364;2024-02-04T14:33:06;95121.47;;;10.75;100.00
6134;BME280;3098;42.678;23.364;2024-02-04T14:35:35;95069.47;;;10.44;100.00
6134;BME280;3098;42.678;23.364;2024-02-04T14:46:17;94767.25;;;8.13;100.00
6134;BME280;3098;42.678;23.364;2024-02-04T14:48:59;95245.75;;;11.26;100.00
6134;BME280;3098;42.678;23.364;2024-02-04T14:54:07;94851.22;;;8.57;100.00
6134;BME280;3098;42.678;23.364;2024-02-04T14:56:55;94945.56;;;9.11;100.00
6134;BME280;3098;42.678;23.364;2024-02-04T14:59:29;95205.19;;;10.68;100.00
6134;BME280;3098;42.678;23.364;2024-02-04T15:04:53;95249.84;;;10.88;100.00
6134;BME280;3098;42.678;23.364;2024-02-04T15:07:28;94888.91;;;8.35;100.00
6134;BME280;3098;42.678;23.364;2024-02-04T15:10:02;95132.03;;;9.95;100.00
6134;BME280;3098;42.678;23.364;2024-02-04T15:12:36;95055.91;;;9.38;100.00
6134;BME280;3098;42.678;23.364;2024-02-04T15:15:16;94961.19;;;8.85;100.00
6134;BME280;3098;42.678;23.364;2024-02-04T15:17:51;94965.00;;;8.79;100.00
6134;BME280;3098;42.678;23.364;2024-02-04T15:28:01;95246.44;;;10.38;100.00
6134;BME280;3098;42.678;23.364;2024-02-04T15:30:31;95078.66;;;9.25;100.00
6134;BME280;3098;42.678;23.364;2024-02-04T15:33:05;95267.78;;;10.33;100.00
6134;BME280;3098;42.678;23.364;2024-02-04T15:35:40;94805.09;;;7.35;100.00
6134;BME280;3098;42.678;23.364;2024-02-04T15:38:14;95015.31;;;8.60;100.00
6134;BME280;3098;42.678;23.364;2024-02-04T15:40:52;95251.19;;;10.14;100.00
6134;BME280;3098;42.678;23.364;2024-02-04T16:01:44;95261.44;;;9.74;100.00
6134;BME280;3098;42.678;23.364;2024-02-04T16:04:18;94863.09;;;7.22;100.00
6134;BME280;3098;42.678;23.364;2024-02-04T16:06:51;95127.00;;;8.85;100.00
6134;BME280;3098;42.678;23.364;2024-02-04T16:09:22;95092.56;;;8.57;100.00
6134;BME280;3098;42.678;23.364;2024-02-04T16:12:01;95245.72;;;9.51;100.00
6134;BME280;3098;42.678;23.364;2024-02-04T16:14:39;94883.50;;;6.98;100.00
6134;BME280;3098;42.678;23.364;2024-02-04T16:33:38;95266.63;;;9.20;100.00
6134;BME280;3098;42.678;23.364;2024-02-04T16:36:09;95206.28;;;8.90;100.00
6134;BME280;3098;42.678;23.364;2024-02-04T16:38:44;95146.88;;;8.50;100.00
6134;BME280;3098;42.678;23.364;2024-02-04T16:41:12;95271.88;;;9.25;100.00
6134;BME280;3098;42.678;23.364;2024-02-04T16:44:00;94885.97;;;6.70;100.00
6134;BME280;3098;42.678;23.364;2024-02-04T16:46:45;95026.16;;;7.38;100.00
6134;BME280;3098;42.678;23.364;2024-02-04T16:49:21;95142.13;;;8.33;100.00
6134;BME280;3098;42.678;23.364;2024-02-04T16:51:57;95283.03;;;9.22;100.00
6134;BME280;3098;42.678;23.364;2024-02-04T16:54:27;95158.09;;;8.42;100.00
6134;BME280;3098;42.678;23.364;2024-02-04T16:57:00;94838.69;;;6.36;100.00
6134;BME280;3098;42.678;23.364;2024-02-04T16:59:34;95208.66;;;8.73;100.00
6134;BME280;3098;42.678;23.364;2024-02-04T17:02:11;95095.75;;;8.22;100.00
6134;BME280;3098;42.678;23.364;2024-02-04T17:04:48;95315.88;;;9.53;100.00
6134;BME280;3098;42.678;23.364;2024-02-04T17:07:22;95143.09;;;8.37;100.00
6134;BME280;3098;42.678;23.364;2024-02-04T17:10:05;95154.69;;;8.41;100.00
6134;BME280;3098;42.678;23.364;2024-02-04T17:12:37;95307.84;;;9.58;100.00
6134;BME280;3098;42.678;23.364;2024-02-04T17:15:09;94873.09;;;6.69;100.00
6134;BME280;3098;42.678;23.364;2024-02-04T17:17:42;95037.31;;;7.73;100.00
6134;BME280;3098;42.678;23.364;2024-02-04T17:23:15;94810.56;;;5.90;100.00
6134;BME280;3098;42.678;23.364;2024-02-04T17:25:46;94953.59;;;6.80;100.00
6134;BME280;3098;42.678;23.364;2024-02-04T17:28:20;95308.16;;;9.38;100.00
6134;BME280;3098;42.678;23.364;2024-02-04T17:30:56;95065.84;;;7.89;100.00
6134;BME280;3098;42.678;23.364;2024-02-04T17:33:32;95057.59;;;7.77;100.00
6134;BME280;3098;42.678;23.364;2024-02-04T17:36:07;95310.69;;;9.30;100.00
6134;BME280;3098;42.678;23.364;2024-02-04T17:38:46;95081.75;;;7.84;100.00